This is the latest recevied weather packets stored in our database for station/object IU7URP-17. If no packets are shown the sender has not sent any weather packets the latest 10 day(s).
| Time | Temp. | Humidity | Pressure | Rain* | Wind** | Luminosity | Snow |
|---|---|---|---|---|---|---|---|
| 1787996518 | 37.22° C | 26% | 1015.6 hPa | - | - | - | - |
| 1787995314 | 37.78° C | 25% | 1015.7 hPa | - | - | - | - |
| 1787994110 | 37.22° C | 27% | 1015.7 hPa | - | - | - | - |
| 1787992906 | 37.22° C | 29% | 1015.8 hPa | - | - | - | - |
| 1787991702 | 36.67° C | 32% | 1015.9 hPa | - | - | - | - |
| 1787990497 | 36.67° C | 32% | 1015.7 hPa | - | - | - | - |
| 1787989293 | 35.56° C | 37% | 1015.8 hPa | - | - | - | - |
| 1787988089 | 34.44° C | 40% | 1015.7 hPa | - | - | - | - |
| 1787986885 | 33.89° C | 44% | 1015.5 hPa | - | - | - | - |
| 1787985681 | 32.22° C | 48% | 1015.4 hPa | - | - | - | - |
| 1787984477 | 30.56° C | 51% | 1015.5 hPa | - | - | - | - |
| 1787982069 | 27.22° C | 61% | 1015.1 hPa | - | - | - | - |
| 1787979661 | 25.56° C | 64% | 1015.2 hPa | - | - | - | - |
| 1787978457 | 25° C | 65% | 1015 hPa | - | - | - | - |
| 1787976049 | 24.44° C | 65% | 1015.1 hPa | - | - | - | - |
| 1787974845 | 23.89° C | 72% | 1015.1 hPa | - | - | - | - |
| 1787973641 | 23.89° C | 72% | 1014.8 hPa | - | - | - | - |
| 1787972437 | 24.44° C | 69% | 1014.9 hPa | - | - | - | - |
| 1787971233 | 24.44° C | 71% | 1015 hPa | - | - | - | - |
| 1787970029 | 25° C | 70% | 1015 hPa | - | - | - | - |
| 1787968825 | 23.89° C | 72% | 1015.1 hPa | - | - | - | - |
| 1787967620 | 24.44° C | 69% | 1014.9 hPa | - | - | - | - |
| 1787966416 | 25.56° C | 67% | 1014.9 hPa | - | - | - | - |
| 1787965212 | 25.56° C | 67% | 1014.9 hPa | - | - | - | - |
| 1787964008 | 25° C | 66% | 1015.2 hPa | - | - | - | - |
* Rain since midnight (hover to see other rain measurements)
** Current wind speed in m/s (hover to see current wind gust speed)